Time;durP1;ratioP1;P1;durP2;ratioP2;P2;SDS_P1;SDS_P2;PMS_P1;PMS_P2;Temp;Humidity;BMP_temperature;BMP_pressure;BME280_temperature;BME280_humidity;BME280_pressure;Samples;Min_cycle;Max_cycle;Signal;HPM_P1;HPM_P2
2021/12/30 00:01:00;;;;;;;1.10;0.40;;;10.40;99.90;;;;;;4993505;28;20438;-70
2021/12/30 00:03:26;;;;;;;1.20;0.50;;;10.60;99.90;;;;;;4991155;28;20802;-70
2021/12/30 00:05:52;;;;;;;1.30;0.60;;;10.60;99.90;;;;;;4995877;28;20469;-70
2021/12/30 00:08:20;;;;;;;1.40;0.40;;;10.60;99.90;;;;;;4993132;28;20454;-69
2021/12/30 00:10:46;;;;;;;1.97;1.03;;;10.60;99.90;;;;;;4996781;28;20450;-69
2021/12/30 00:13:11;;;;;;;3.43;0.60;;;10.60;99.90;;;;;;4992726;28;20439;-70
2021/12/30 00:15:38;;;;;;;1.20;0.50;;;10.70;99.90;;;;;;4996150;28;20479;-69
2021/12/30 00:18:06;;;;;;;1.40;0.60;;;10.70;99.90;;;;;;4993091;28;20194;-69
2021/12/30 00:20:32;;;;;;;1.30;0.50;;;10.70;99.90;;;;;;4994254;28;21003;-69
2021/12/30 00:23:01;;;;;;;1.13;0.40;;;10.70;99.90;;;;;;4994099;28;20481;-69
2021/12/30 00:25:27;;;;;;;1.20;0.50;;;10.80;99.90;;;;;;4996063;28;20981;-70
2021/12/30 00:27:53;;;;;;;1.80;0.60;;;11.00;99.90;;;;;;4994937;28;20462;-69
2021/12/30 00:30:19;;;;;;;1.20;0.50;;;11.00;99.90;;;;;;4988552;28;20206;-69
2021/12/30 00:32:45;;;;;;;1.37;0.60;;;11.00;99.90;;;;;;4994856;28;20205;-69
2021/12/30 00:35:11;;;;;;;1.30;0.50;;;10.80;99.90;;;;;;4993844;28;20919;-69
2021/12/30 00:37:37;;;;;;;1.23;0.53;;;10.80;99.90;;;;;;4992945;28;20198;-69
2021/12/30 00:40:05;;;;;;;2.37;0.70;;;10.80;99.90;;;;;;4986326;28;20441;-70
2021/12/30 00:42:31;;;;;;;2.40;0.60;;;10.70;99.90;;;;;;4996090;28;20438;-69
2021/12/30 00:44:56;;;;;;;2.40;0.73;;;10.70;99.90;;;;;;4995628;28;20484;-69
2021/12/30 00:47:22;;;;;;;2.03;0.60;;;10.70;99.90;;;;;;4992891;28;20266;-69
2021/12/30 00:49:48;;;;;;;1.20;0.50;;;10.70;99.90;;;;;;4995232;28;20652;-69
2021/12/30 00:52:13;;;;;;;14.03;0.90;;;10.70;99.90;;;;;;4997056;28;20183;-69
2021/12/30 00:54:39;;;;;;;1.20;0.50;;;10.60;99.90;;;;;;4994747;28;20188;-69
2021/12/30 00:57:05;;;;;;;1.90;0.70;;;10.70;99.90;;;;;;4993438;28;20194;-69
2021/12/30 00:59:30;;;;;;;1.27;0.53;;;10.70;99.90;;;;;;4990575;28;20555;-69
2021/12/30 01:01:56;;;;;;;1.53;0.67;;;10.70;99.90;;;;;;4995065;28;20568;-69
2021/12/30 01:04:22;;;;;;;2.40;0.70;;;10.70;99.90;;;;;;4993216;28;20832;-69
2021/12/30 01:06:47;;;;;;;1.60;0.60;;;10.80;99.90;;;;;;4994402;28;20292;-69
2021/12/30 01:09:15;;;;;;;1.80;0.50;;;10.80;99.90;;;;;;4994008;28;20736;-69
2021/12/30 01:11:40;;;;;;;1.30;0.60;;;10.80;99.90;;;;;;4993492;28;20485;-69
2021/12/30 01:14:19;;;;;;;1.80;0.50;;;10.70;99.90;;;;;;4990968;28;20190;-69
2021/12/30 01:16:49;;;;;;;1.33;0.50;;;10.70;99.90;;;;;;4991837;28;20274;-69
2021/12/30 01:21:48;;;;;;;1.30;0.60;;;10.70;99.90;;;;;;4989478;28;20617;-69
2021/12/30 01:24:14;;;;;;;1.10;0.40;;;10.70;99.90;;;;;;4991252;28;21278;-69
2021/12/30 01:26:40;;;;;;;1.47;0.60;;;10.60;99.90;;;;;;4994615;28;20472;-69
2021/12/30 01:29:06;;;;;;;1.23;0.60;;;10.60;99.90;;;;;;4996676;28;20191;-69
2021/12/30 01:31:32;;;;;;;1.57;0.83;;;10.70;99.90;;;;;;4990265;28;20545;-69
2021/12/30 01:33:57;;;;;;;2.23;0.93;;;10.70;99.90;;;;;;4994394;28;20196;-69
2021/12/30 01:36:26;;;;;;;1.60;0.50;;;10.70;99.90;;;;;;4996374;28;20277;-69
2021/12/30 01:38:52;;;;;;;1.20;0.50;;;10.80;99.90;;;;;;4989974;28;20207;-69
2021/12/30 01:41:18;;;;;;;2.80;0.57;;;10.80;99.90;;;;;;4990941;28;20481;-69
2021/12/30 01:43:44;;;;;;;1.63;0.77;;;10.70;99.90;;;;;;5000803;28;20445;-69
2021/12/30 01:46:10;;;;;;;1.30;0.50;;;10.70;99.90;;;;;;4991074;28;20195;-69
2021/12/30 01:48:36;;;;;;;1.20;0.50;;;10.70;99.90;;;;;;4995492;28;20183;-69
2021/12/30 01:51:02;;;;;;;3.20;0.60;;;10.60;99.90;;;;;;4988312;28;20457;-69
2021/12/30 01:53:28;;;;;;;1.10;0.47;;;10.60;99.90;;;;;;4988551;28;20860;-69
2021/12/30 01:55:54;;;;;;;1.17;0.47;;;10.70;99.90;;;;;;4988264;28;20510;-69
2021/12/30 01:58:20;;;;;;;1.50;0.57;;;10.60;99.90;;;;;;4989423;28;20195;-69
2021/12/30 02:00:48;;;;;;;1.50;0.60;;;10.70;99.90;;;;;;4989676;28;20194;-70
2021/12/30 02:03:14;;;;;;;1.53;0.60;;;10.70;99.90;;;;;;4988274;28;20477;-69
2021/12/30 02:05:41;;;;;;;1.30;0.50;;;10.70;99.90;;;;;;4989411;28;20430;-69
2021/12/30 02:08:12;;;;;;;2.37;0.80;;;10.70;99.90;;;;;;4993985;28;20508;-69
2021/12/30 02:10:39;;;;;;;1.20;0.50;;;10.60;99.90;;;;;;4998334;28;20434;-69
2021/12/30 02:13:05;;;;;;;1.57;0.70;;;10.70;99.90;;;;;;4991551;28;20418;-69
2021/12/30 02:15:31;;;;;;;2.50;0.97;;;10.80;99.90;;;;;;4991107;28;20474;-69
2021/12/30 02:17:59;;;;;;;1.17;0.40;;;10.70;99.90;;;;;;4992767;28;20211;-69
2021/12/30 02:20:47;;;;;;;1.83;1.03;;;10.70;99.90;;;;;;4992542;28;20223;-69
2021/12/30 02:23:21;;;;;;;1.57;0.60;;;10.60;99.90;;;;;;4986090;28;20427;-69
2021/12/30 02:25:48;;;;;;;1.50;0.60;;;10.60;99.90;;;;;;4995648;28;20504;-69
2021/12/30 02:28:16;;;;;;;1.30;0.50;;;10.60;99.90;;;;;;4992142;28;20469;-69
2021/12/30 02:30:43;;;;;;;1.50;0.60;;;10.70;99.90;;;;;;4997036;28;20426;-69
2021/12/30 02:33:09;;;;;;;1.30;0.60;;;10.70;99.90;;;;;;4992109;28;20423;-69
2021/12/30 02:35:35;;;;;;;1.20;0.50;;;10.70;99.90;;;;;;4996161;28;20483;-69
2021/12/30 02:38:01;;;;;;;1.20;0.50;;;10.70;99.90;;;;;;4995322;28;20465;-69
2021/12/30 02:40:35;;;;;;;3.23;0.50;;;10.70;99.90;;;;;;4991798;28;20462;-69
2021/12/30 02:43:03;;;;;;;1.10;0.40;;;10.70;99.90;;;;;;4990655;28;20422;-69
2021/12/30 02:45:29;;;;;;;1.20;0.60;;;10.70;99.90;;;;;;4991087;28;20422;-69
2021/12/30 02:47:54;;;;;;;3.33;0.60;;;10.70;99.90;;;;;;4992162;28;20537;-69
2021/12/30 02:50:20;;;;;;;3.40;0.70;;;10.60;99.90;;;;;;4992558;28;20188;-69
2021/12/30 02:52:45;;;;;;;1.43;0.77;;;10.60;99.90;;;;;;4993327;28;20187;-69
2021/12/30 02:55:11;;;;;;;3.87;0.60;;;10.60;99.90;;;;;;4992753;28;20219;-69
2021/12/30 02:57:37;;;;;;;1.37;0.53;;;10.70;99.90;;;;;;4997789;28;20187;-69
2021/12/30 03:00:05;;;;;;;3.63;0.50;;;10.70;99.90;;;;;;4994882;28;20529;-69
2021/12/30 03:02:31;;;;;;;1.20;0.40;;;10.70;99.90;;;;;;4993652;28;20198;-68
2021/12/30 03:04:56;;;;;;;9.00;0.60;;;10.70;99.90;;;;;;4995020;28;20855;-68
2021/12/30 03:07:22;;;;;;;1.20;0.50;;;10.70;99.90;;;;;;4993967;28;20203;-68
2021/12/30 03:09:48;;;;;;;1.90;0.80;;;10.60;99.90;;;;;;4996859;28;20703;-68
2021/12/30 03:12:14;;;;;;;1.50;0.67;;;10.60;99.90;;;;;;4995309;28;20187;-68
2021/12/30 03:14:41;;;;;;;1.10;0.40;;;10.60;99.90;;;;;;4997554;28;20445;-68
2021/12/30 03:17:08;;;;;;;2.03;0.53;;;10.60;99.90;;;;;;4995515;28;20430;-68
2021/12/30 03:19:33;;;;;;;2.03;0.70;;;10.60;99.90;;;;;;4998706;28;20423;-68
2021/12/30 03:21:59;;;;;;;1.43;0.60;;;10.60;99.90;;;;;;4996667;28;20457;-68
2021/12/30 03:24:25;;;;;;;2.67;0.80;;;10.60;99.90;;;;;;4999733;28;20223;-68
2021/12/30 03:26:51;;;;;;;1.50;0.73;;;10.60;99.90;;;;;;4995718;28;20207;-68
2021/12/30 03:29:16;;;;;;;1.20;0.40;;;10.60;99.90;;;;;;5000644;28;20215;-68
2021/12/30 03:31:42;;;;;;;3.77;1.07;;;10.60;99.90;;;;;;4996693;28;20221;-68
2021/12/30 03:34:08;;;;;;;1.40;0.70;;;10.60;99.90;;;;;;5001965;28;20246;-68
2021/12/30 03:36:33;;;;;;;1.20;0.50;;;10.70;99.90;;;;;;4993848;28;20192;-68
2021/12/30 03:38:59;;;;;;;1.20;0.50;;;10.60;99.90;;;;;;5003168;28;20180;-68
2021/12/30 03:41:27;;;;;;;1.20;0.50;;;10.60;99.90;;;;;;4991535;28;20708;-68
2021/12/30 03:43:54;;;;;;;1.20;0.50;;;10.60;99.90;;;;;;4991684;28;20219;-68
2021/12/30 03:46:20;;;;;;;1.30;0.53;;;10.60;99.90;;;;;;4984579;28;20441;-68
2021/12/30 03:48:46;;;;;;;1.57;0.60;;;10.60;99.90;;;;;;4990961;28;20466;-68
2021/12/30 03:51:24;;;;;;;1.20;0.50;;;10.60;99.90;;;;;;4992445;28;20865;-68
2021/12/30 03:53:53;;;;;;;1.30;0.57;;;10.60;99.90;;;;;;4986423;28;20433;-68
2021/12/30 03:56:22;;;;;;;1.50;0.70;;;10.60;99.90;;;;;;4992164;28;20422;-69
2021/12/30 03:58:48;;;;;;;1.40;0.50;;;10.70;99.90;;;;;;4992620;28;20446;-68
2021/12/30 04:01:17;;;;;;;1.17;0.40;;;10.70;99.90;;;;;;4994555;28;20438;-68
2021/12/30 04:03:43;;;;;;;1.20;0.50;;;10.70;99.90;;;;;;4993343;28;20426;-68
2021/12/30 04:06:09;;;;;;;1.20;0.50;;;10.70;99.90;;;;;;4996164;28;20798;-68
2021/12/30 04:08:35;;;;;;;1.57;0.40;;;10.70;99.90;;;;;;4991948;28;20223;-68
2021/12/30 04:11:01;;;;;;;1.20;0.50;;;10.70;99.90;;;;;;4997253;28;20418;-68
2021/12/30 04:13:28;;;;;;;1.10;0.40;;;10.70;99.90;;;;;;4985381;28;20419;-68
2021/12/30 04:15:54;;;;;;;1.10;0.40;;;10.70;99.90;;;;;;4997805;28;20907;-68
2021/12/30 04:18:20;;;;;;;1.10;0.40;;;10.70;99.90;;;;;;4994702;28;20438;-68
2021/12/30 04:20:46;;;;;;;1.30;0.50;;;10.70;99.90;;;;;;4998568;28;20506;-68
2021/12/30 04:23:12;;;;;;;5.53;0.53;;;10.70;99.90;;;;;;4996412;28;20427;-68
2021/12/30 04:25:39;;;;;;;6.50;0.93;;;10.70;99.90;;;;;;4998930;28;20426;-68
2021/12/30 04:28:05;;;;;;;1.20;0.50;;;10.70;99.90;;;;;;4994317;28;20964;-68
2021/12/30 04:30:31;;;;;;;1.13;0.50;;;10.70;99.90;;;;;;4989709;28;20460;-68
2021/12/30 04:32:57;;;;;;;2.23;0.50;;;10.70;99.90;;;;;;4989210;28;20463;-68
2021/12/30 04:35:23;;;;;;;1.10;0.40;;;10.70;99.90;;;;;;4995740;28;20521;-68
2021/12/30 04:37:49;;;;;;;1.30;0.40;;;10.80;99.90;;;;;;4994055;28;21251;-68
2021/12/30 04:40:15;;;;;;;1.40;0.60;;;10.80;99.90;;;;;;4996044;28;20187;-68
2021/12/30 04:42:42;;;;;;;1.30;0.60;;;10.70;99.90;;;;;;4991093;28;20184;-68
2021/12/30 04:45:09;;;;;;;1.83;0.50;;;10.70;99.90;;;;;;4993099;28;20514;-68
2021/12/30 04:47:37;;;;;;;1.40;0.70;;;10.70;99.90;;;;;;4990983;28;20462;-68
2021/12/30 04:50:04;;;;;;;1.40;0.57;;;10.70;99.90;;;;;;4994464;28;20426;-68
2021/12/30 04:52:30;;;;;;;1.10;0.40;;;10.80;99.90;;;;;;4992036;28;20427;-68
2021/12/30 04:54:55;;;;;;;1.73;0.70;;;10.80;99.90;;;;;;4995325;28;20483;-68
2021/12/30 04:57:21;;;;;;;1.20;0.50;;;10.70;99.90;;;;;;4992285;28;20227;-68
2021/12/30 04:59:47;;;;;;;1.10;0.40;;;10.80;99.90;;;;;;4996242;28;20282;-68
2021/12/30 05:02:13;;;;;;;1.20;0.50;;;10.80;99.90;;;;;;4992050;28;20192;-68
2021/12/30 05:04:38;;;;;;;2.70;1.00;;;10.80;99.90;;;;;;4995672;28;20578;-68
2021/12/30 05:07:04;;;;;;;1.10;0.40;;;10.80;99.90;;;;;;4992327;28;20469;-68
2021/12/30 05:09:31;;;;;;;1.90;0.50;;;10.80;99.90;;;;;;4997442;28;20218;-68
2021/12/30 05:11:57;;;;;;;1.20;0.50;;;10.80;99.90;;;;;;4986713;28;20183;-68
2021/12/30 05:14:23;;;;;;;1.40;0.60;;;10.70;99.90;;;;;;4997676;28;20414;-68
2021/12/30 05:16:51;;;;;;;1.37;0.50;;;10.80;99.90;;;;;;4992891;28;20192;-68
2021/12/30 05:19:17;;;;;;;1.57;0.50;;;10.80;99.90;;;;;;4997850;28;20904;-68
2021/12/30 05:21:43;;;;;;;1.20;0.50;;;10.70;99.90;;;;;;4994580;28;20458;-68
2021/12/30 05:24:09;;;;;;;3.13;0.47;;;10.80;99.90;;;;;;4998292;28;20195;-68
2021/12/30 05:26:34;;;;;;;1.20;0.40;;;10.80;99.90;;;;;;4995573;28;20323;-68
2021/12/30 05:29:03;;;;;;;1.60;0.50;;;10.70;99.90;;;;;;4995017;28;20183;-68
2021/12/30 05:31:29;;;;;;;1.10;0.40;;;10.70;99.90;;;;;;5000680;28;20215;-68
2021/12/30 05:33:55;;;;;;;1.10;0.40;;;10.70;99.90;;;;;;4994924;28;20427;-68
2021/12/30 05:36:21;;;;;;;1.10;0.40;;;10.70;99.90;;;;;;4987965;28;20184;-69
2021/12/30 05:38:47;;;;;;;1.20;0.40;;;10.70;99.90;;;;;;4993862;28;21271;-69
2021/12/30 05:41:12;;;;;;;1.10;0.40;;;10.80;99.90;;;;;;4993552;28;20427;-69
2021/12/30 05:43:38;;;;;;;1.10;0.40;;;10.80;99.90;;;;;;4992977;28;20190;-68
2021/12/30 05:46:04;;;;;;;1.10;0.40;;;10.80;99.90;;;;;;4990100;28;20205;-69
2021/12/30 05:48:29;;;;;;;1.10;0.40;;;10.80;99.90;;;;;;4995690;28;20640;-69
2021/12/30 05:50:59;;;;;;;1.10;0.40;;;10.80;99.90;;;;;;4991156;28;20267;-69
2021/12/30 05:53:29;;;;;;;1.10;0.40;;;10.80;99.90;;;;;;4996063;28;20644;-69
2021/12/30 05:55:55;;;;;;;1.20;0.40;;;10.80;99.90;;;;;;4991509;28;20422;-69
2021/12/30 05:58:21;;;;;;;1.10;0.40;;;10.80;99.90;;;;;;4996284;28;20852;-69
2021/12/30 06:00:47;;;;;;;1.10;0.40;;;10.90;99.90;;;;;;4993364;28;20415;-68
2021/12/30 06:03:14;;;;;;;1.73;0.70;;;10.90;99.90;;;;;;4997547;28;20270;-69
2021/12/30 06:05:40;;;;;;;1.30;0.50;;;10.90;99.90;;;;;;4994148;28;20419;-68
2021/12/30 06:08:06;;;;;;;1.20;0.60;;;11.00;99.90;;;;;;4992607;28;20477;-68
2021/12/30 06:10:31;;;;;;;4.93;1.13;;;11.00;99.90;;;;;;4994566;28;20242;-68
2021/12/30 06:12:57;;;;;;;2.67;0.87;;;11.00;99.90;;;;;;4987917;28;20188;-69
2021/12/30 06:15:23;;;;;;;8.47;2.63;;;10.90;99.90;;;;;;4989995;28;20262;-68
2021/12/30 06:17:48;;;;;;;1.70;0.80;;;10.90;99.90;;;;;;4994328;28;20191;-68
2021/12/30 06:20:14;;;;;;;1.90;0.60;;;10.90;99.90;;;;;;4998745;28;20671;-69
2021/12/30 06:22:44;;;;;;;1.30;0.50;;;10.90;99.90;;;;;;4993206;28;20583;-68
2021/12/30 06:25:12;;;;;;;1.60;0.80;;;10.90;99.90;;;;;;4993622;28;20537;-68
2021/12/30 06:27:38;;;;;;;1.40;0.60;;;10.90;99.90;;;;;;4993372;28;20871;-68
2021/12/30 06:30:05;;;;;;;1.27;0.60;;;10.80;99.90;;;;;;4994709;28;20454;-68
2021/12/30 06:32:31;;;;;;;1.13;0.40;;;10.90;99.90;;;;;;4994370;28;20477;-68
2021/12/30 06:34:57;;;;;;;1.83;0.70;;;10.90;99.90;;;;;;4995016;28;20725;-69
2021/12/30 06:37:23;;;;;;;1.17;0.50;;;10.80;99.90;;;;;;4994838;28;20823;-68
2021/12/30 06:39:48;;;;;;;1.40;0.50;;;10.80;99.90;;;;;;5002269;28;20215;-69
2021/12/30 06:42:14;;;;;;;1.87;0.50;;;10.70;99.90;;;;;;4996354;28;20266;-69
2021/12/30 06:44:40;;;;;;;1.33;0.57;;;10.70;99.90;;;;;;4994747;28;20215;-69
2021/12/30 06:47:06;;;;;;;2.10;1.00;;;10.80;99.90;;;;;;4996523;28;20212;-69
2021/12/30 06:49:38;;;;;;;1.53;0.80;;;10.70;99.90;;;;;;4995327;28;20188;-69
2021/12/30 06:52:07;;;;;;;2.60;0.70;;;10.70;99.90;;;;;;4997647;28;20425;-68
2021/12/30 06:54:33;;;;;;;1.90;0.63;;;10.80;99.90;;;;;;4997505;28;20434;-70
2021/12/30 06:57:00;;;;;;;1.77;0.77;;;10.80;99.90;;;;;;4997935;28;20437;-68
2021/12/30 06:59:27;;;;;;;2.03;0.70;;;10.70;99.90;;;;;;4997930;28;20188;-68
2021/12/30 07:01:56;;;;;;;1.50;0.80;;;10.70;99.90;;;;;;4998824;28;20430;-69
2021/12/30 07:04:22;;;;;;;1.20;0.60;;;10.70;99.90;;;;;;4993346;28;20446;-69
2021/12/30 07:06:48;;;;;;;1.97;0.90;;;10.70;99.90;;;;;;4994035;28;21004;-69
2021/12/30 07:09:13;;;;;;;1.27;0.63;;;10.70;99.90;;;;;;5005892;28;20431;-69
2021/12/30 07:11:39;;;;;;;2.50;0.60;;;10.70;99.90;;;;;;4994618;28;20326;-68
2021/12/30 07:14:05;;;;;;;1.50;0.60;;;10.70;99.90;;;;;;4991276;28;20192;-69
2021/12/30 07:16:30;;;;;;;2.27;0.70;;;10.80;99.90;;;;;;4990636;28;20906;-69
2021/12/30 07:18:56;;;;;;;1.30;0.60;;;10.80;99.90;;;;;;4992287;28;20191;-69
2021/12/30 07:21:22;;;;;;;1.20;0.60;;;10.80;99.90;;;;;;4991596;28;20195;-69
2021/12/30 07:23:48;;;;;;;1.50;0.70;;;10.70;99.90;;;;;;4992974;28;20226;-69
2021/12/30 07:26:14;;;;;;;2.17;1.03;;;10.80;99.90;;;;;;4991100;28;20265;-70
2021/12/30 07:28:39;;;;;;;1.87;1.13;;;10.80;99.90;;;;;;4993727;28;20196;-70
2021/12/30 07:31:05;;;;;;;1.60;0.80;;;10.80;99.90;;;;;;4992565;28;20195;-70
2021/12/30 07:33:31;;;;;;;2.10;1.17;;;10.80;99.90;;;;;;4985239;28;20200;-70
2021/12/30 07:35:56;;;;;;;2.70;0.80;;;10.80;99.90;;;;;;4984827;28;20188;-70
2021/12/30 07:38:23;;;;;;;1.83;0.80;;;10.80;99.90;;;;;;4997475;28;20520;-70
2021/12/30 07:40:49;;;;;;;1.30;0.50;;;10.80;99.90;;;;;;4995122;28;20210;-71
2021/12/30 07:43:15;;;;;;;1.23;0.60;;;10.80;99.90;;;;;;4995806;28;20931;-71
2021/12/30 07:45:40;;;;;;;1.20;0.50;;;10.80;99.90;;;;;;4996174;28;20434;-71
2021/12/30 07:48:06;;;;;;;2.40;0.90;;;10.80;99.90;;;;;;4994024;28;20220;-71
2021/12/30 07:50:32;;;;;;;1.33;0.60;;;10.80;99.90;;;;;;5000581;28;20238;-71
2021/12/30 07:52:59;;;;;;;1.27;0.67;;;10.80;99.90;;;;;;4988409;28;20184;-72
2021/12/30 07:55:25;;;;;;;1.43;0.70;;;10.80;99.90;;;;;;4999065;28;20555;-72
2021/12/30 07:57:55;;;;;;;1.93;0.80;;;10.80;99.90;;;;;;4994232;28;21419;-72
2021/12/30 08:00:21;;;;;;;1.30;0.50;;;10.80;99.90;;;;;;4997708;28;20219;-72
2021/12/30 08:02:46;;;;;;;1.27;0.50;;;10.90;99.90;;;;;;4992103;28;20558;-72
2021/12/30 08:05:15;;;;;;;1.40;0.70;;;10.90;99.90;;;;;;4984917;28;20192;-72
2021/12/30 08:07:42;;;;;;;1.20;0.50;;;10.90;99.90;;;;;;4990048;28;20664;-72
2021/12/30 08:10:12;;;;;;;1.30;0.67;;;10.90;99.90;;;;;;4990224;28;21134;-72
2021/12/30 08:12:39;;;;;;;1.73;0.70;;;10.90;99.90;;;;;;4991379;28;21341;-72
2021/12/30 08:15:06;;;;;;;1.97;0.60;;;10.90;99.90;;;;;;4990292;28;20895;-72
2021/12/30 08:17:33;;;;;;;1.20;0.50;;;11.00;99.90;;;;;;4992729;28;20508;-72
2021/12/30 08:19:58;;;;;;;1.10;0.50;;;11.00;99.90;;;;;;4991524;28;20443;-72
2021/12/30 08:22:24;;;;;;;1.50;0.60;;;11.00;99.90;;;;;;4991440;28;20454;-72
2021/12/30 08:24:50;;;;;;;1.30;0.57;;;11.00;99.90;;;;;;4991347;28;20898;-72
2021/12/30 08:27:15;;;;;;;1.20;0.50;;;11.10;99.90;;;;;;4995170;28;20254;-72
2021/12/30 08:29:42;;;;;;;1.20;0.53;;;11.10;99.90;;;;;;4992260;28;20206;-71
2021/12/30 08:32:11;;;;;;;1.20;0.47;;;11.10;99.90;;;;;;4993296;28;20219;-71
2021/12/30 08:34:37;;;;;;;1.23;0.50;;;11.20;99.90;;;;;;4991898;28;20431;-71
2021/12/30 08:37:04;;;;;;;1.80;0.80;;;11.20;99.90;;;;;;4996288;28;20476;-71
2021/12/30 08:39:29;;;;;;;1.57;0.60;;;11.20;99.90;;;;;;4993782;28;20507;-71
2021/12/30 08:41:57;;;;;;;1.20;0.50;;;11.20;99.90;;;;;;4999285;28;20450;-71
2021/12/30 08:44:24;;;;;;;1.10;0.40;;;11.30;99.90;;;;;;4994264;28;20628;-71
2021/12/30 08:46:50;;;;;;;1.37;0.57;;;11.30;99.90;;;;;;5000581;28;20469;-71
2021/12/30 08:49:16;;;;;;;1.30;0.50;;;11.30;99.90;;;;;;4995287;28;20427;-71
2021/12/30 08:51:42;;;;;;;1.40;0.60;;;11.30;99.90;;;;;;4999069;28;20191;-71
2021/12/30 08:54:07;;;;;;;1.40;0.60;;;11.30;99.90;;;;;;4989392;28;20184;-71
2021/12/30 08:56:33;;;;;;;1.10;0.40;;;11.30;99.90;;;;;;4988405;28;20226;-71
2021/12/30 08:58:59;;;;;;;1.30;0.60;;;11.30;99.90;;;;;;4989121;28;20188;-71
2021/12/30 09:01:27;;;;;;;1.30;0.60;;;11.40;99.90;;;;;;4993623;28;20180;-71
2021/12/30 09:03:53;;;;;;;1.20;0.50;;;11.40;99.90;;;;;;4994990;28;20850;-71
2021/12/30 09:06:18;;;;;;;1.20;0.60;;;11.50;99.90;;;;;;4996241;28;20422;-71
2021/12/30 09:08:44;;;;;;;1.40;0.60;;;11.50;99.90;;;;;;4991982;28;20279;-70
2021/12/30 09:11:10;;;;;;;1.30;0.60;;;11.50;99.90;;;;;;4998820;28;20198;-70
2021/12/30 09:13:35;;;;;;;1.20;0.50;;;11.50;99.90;;;;;;4998455;28;20230;-71
2021/12/30 09:16:02;;;;;;;1.20;0.60;;;11.50;99.90;;;;;;5000240;28;20234;-70
2021/12/30 09:18:28;;;;;;;1.10;0.43;;;11.50;99.90;;;;;;4987225;28;20246;-70
2021/12/30 09:20:54;;;;;;;1.50;0.60;;;11.60;99.90;;;;;;4990659;28;20453;-70
2021/12/30 09:23:19;;;;;;;1.67;0.67;;;11.70;99.90;;;;;;4983814;28;20427;-70
2021/12/30 09:25:45;;;;;;;1.40;0.50;;;11.80;99.90;;;;;;4993670;28;20195;-70
2021/12/30 09:28:12;;;;;;;1.93;0.70;;;11.80;99.90;;;;;;4990732;28;20215;-71
2021/12/30 09:30:39;;;;;;;1.77;0.83;;;11.90;99.90;;;;;;4995548;28;20513;-70
2021/12/30 09:33:07;;;;;;;2.00;0.90;;;11.90;99.90;;;;;;4991438;28;20423;-70
2021/12/30 09:35:32;;;;;;;1.70;0.90;;;11.90;99.90;;;;;;4995200;28;20504;-70
2021/12/30 09:37:58;;;;;;;1.20;0.60;;;12.00;99.90;;;;;;4997070;28;20482;-71
2021/12/30 09:40:25;;;;;;;1.20;0.50;;;12.00;99.90;;;;;;4994661;28;20660;-70
2021/12/30 09:43:00;;;;;;;6.10;0.90;;;12.00;99.90;;;;;;4995675;28;20457;-70
2021/12/30 09:45:26;;;;;;;1.57;0.70;;;12.00;99.90;;;;;;4992217;28;20461;-71
2021/12/30 09:47:54;;;;;;;1.30;0.60;;;12.10;99.90;;;;;;4996374;28;20523;-71
2021/12/30 09:50:24;;;;;;;1.87;0.90;;;12.10;99.90;;;;;;4975131;28;20192;-70
2021/12/30 09:52:50;;;;;;;1.40;0.50;;;12.20;99.90;;;;;;4987564;28;20782;-70
2021/12/30 09:55:17;;;;;;;1.30;0.67;;;12.30;99.90;;;;;;4986376;28;20557;-70
2021/12/30 09:57:42;;;;;;;1.60;0.60;;;12.30;99.90;;;;;;4998491;28;20429;-71
2021/12/30 10:00:11;;;;;;;1.50;0.60;;;12.30;99.90;;;;;;4987179;28;20477;-70
2021/12/30 10:02:37;;;;;;;1.50;0.60;;;12.30;99.90;;;;;;4981096;28;20319;-70
2021/12/30 10:05:09;;;;;;;1.40;0.70;;;12.30;99.90;;;;;;4987848;28;20435;-71
2021/12/30 10:07:39;;;;;;;1.60;0.80;;;12.40;99.90;;;;;;4981460;28;20212;-71
2021/12/30 10:10:28;;;;;;;1.33;0.57;;;12.40;99.90;;;;;;4989152;28;20816;-70
2021/12/30 10:12:54;;;;;;;1.57;0.67;;;12.40;99.90;;;;;;4988601;28;20418;-70
2021/12/30 10:15:24;;;;;;;1.93;0.70;;;12.50;99.90;;;;;;4990342;28;20895;-71
2021/12/30 10:18:00;;;;;;;1.40;0.50;;;12.60;99.90;;;;;;4988690;28;20187;-70
2021/12/30 10:20:32;;;;;;;2.00;0.60;;;12.60;99.90;;;;;;4987792;28;20509;-70
2021/12/30 10:23:12;;;;;;;1.30;0.50;;;12.60;99.90;;;;;;4991444;28;20427;-70
2021/12/30 10:25:41;;;;;;;1.20;0.40;;;12.70;99.90;;;;;;4987568;28;20442;-71
2021/12/30 10:28:33;;;;;;;2.70;0.80;;;12.80;99.90;;;;;;4987183;28;20916;-70
2021/12/30 10:31:11;;;;;;;1.43;0.70;;;12.90;99.90;;;;;;4991551;28;20430;-70
2021/12/30 10:33:45;;;;;;;1.30;0.50;;;13.00;99.90;;;;;;4995608;28;20451;-70
2021/12/30 10:36:35;;;;;;;1.20;0.50;;;13.10;99.90;;;;;;4994643;28;20426;-70
2021/12/30 10:39:30;;;;;;;1.40;0.60;;;13.30;99.90;;;;;;4983746;28;20458;-70
2021/12/30 10:41:58;;;;;;;1.23;0.50;;;13.30;99.90;;;;;;4990610;28;20496;-70
2021/12/30 10:44:24;;;;;;;1.40;0.50;;;13.30;99.90;;;;;;4994943;28;20437;-70
2021/12/30 10:46:52;;;;;;;1.63;0.80;;;13.20;99.90;;;;;;4993616;28;20466;-70
2021/12/30 10:49:26;;;;;;;1.30;0.50;;;13.30;99.90;;;;;;4988398;28;20190;-70
2021/12/30 10:51:53;;;;;;;1.40;0.47;;;13.30;99.90;;;;;;4985494;28;20427;-70
2021/12/30 10:54:25;;;;;;;1.33;0.40;;;13.30;99.90;;;;;;4985843;28;20422;-70
2021/12/30 10:56:56;;;;;;;1.20;0.40;;;13.30;99.90;;;;;;4985494;28;21148;-70
2021/12/30 10:59:39;;;;;;;1.40;0.57;;;13.40;99.90;;;;;;4986855;28;20792;-70
2021/12/30 11:02:08;;;;;;;1.50;0.57;;;13.40;99.90;;;;;;4989785;28;20417;-70
2021/12/30 11:04:46;;;;;;;1.50;0.50;;;13.50;99.90;;;;;;4991566;28;20434;-70
2021/12/30 11:07:15;;;;;;;1.17;0.40;;;13.50;99.90;;;;;;4992815;28;20466;-70
2021/12/30 11:09:52;;;;;;;1.30;0.50;;;13.50;99.90;;;;;;4991899;28;20541;-70
2021/12/30 11:12:27;;;;;;;1.20;0.50;;;13.50;99.90;;;;;;4990618;28;20959;-70
2021/12/30 11:14:53;;;;;;;1.20;0.40;;;13.60;99.90;;;;;;4996211;28;20421;-70
2021/12/30 11:17:24;;;;;;;1.50;0.60;;;13.60;99.90;;;;;;4995516;28;20522;-70
2021/12/30 11:19:56;;;;;;;1.20;0.40;;;13.70;99.90;;;;;;4995445;28;20468;-70
2021/12/30 11:22:24;;;;;;;1.30;0.50;;;13.80;99.90;;;;;;4994343;28;20530;-70
2021/12/30 11:24:52;;;;;;;1.50;0.60;;;13.80;99.90;;;;;;4997238;28;20461;-69
2021/12/30 11:27:19;;;;;;;1.77;0.60;;;14.00;99.90;;;;;;4994440;28;20570;-69
2021/12/30 11:29:47;;;;;;;1.30;0.50;;;14.10;99.90;;;;;;4998070;28;20484;-69
2021/12/30 11:32:19;;;;;;;1.30;0.50;;;14.10;99.90;;;;;;4994489;28;20514;-69
2021/12/30 11:34:49;;;;;;;1.20;0.40;;;14.10;99.90;;;;;;4991474;28;20558;-69
2021/12/30 11:37:16;;;;;;;1.20;0.50;;;14.20;99.90;;;;;;4991113;28;20431;-69
2021/12/30 11:39:44;;;;;;;1.40;0.70;;;14.20;99.90;;;;;;4999076;28;20441;-69
2021/12/30 11:42:21;;;;;;;1.20;0.50;;;14.20;99.90;;;;;;4994267;28;20441;-69
2021/12/30 11:44:51;;;;;;;1.70;0.70;;;14.10;99.90;;;;;;4995142;28;20418;-69
2021/12/30 11:47:33;;;;;;;1.30;0.50;;;14.10;99.90;;;;;;4995206;28;20474;-69
2021/12/30 11:50:03;;;;;;;1.20;0.40;;;14.10;99.90;;;;;;4989049;28;20886;-70
2021/12/30 11:52:58;;;;;;;1.20;0.50;;;14.10;99.90;;;;;;4989755;28;20431;-69
2021/12/30 11:55:49;;;;;;;1.60;0.57;;;13.90;99.90;;;;;;4987345;28;20423;-69
2021/12/30 11:58:31;;;;;;;1.20;0.47;;;13.80;99.90;;;;;;4986378;28;20427;-69
2021/12/30 12:01:12;;;;;;;1.50;0.40;;;13.80;99.90;;;;;;4991031;28;20431;-69
2021/12/30 12:03:52;;;;;;;1.33;0.50;;;13.90;99.90;;;;;;4992610;28;20418;-69
2021/12/30 12:06:36;;;;;;;1.50;0.60;;;13.80;99.90;;;;;;4994834;28;20429;-69
2021/12/30 12:09:08;;;;;;;1.30;0.50;;;13.80;99.90;;;;;;4991616;28;21061;-69
2021/12/30 12:11:46;;;;;;;1.30;0.60;;;13.80;99.90;;;;;;4989742;28;20427;-70
2021/12/30 12:14:24;;;;;;;2.03;0.60;;;13.80;99.90;;;;;;4992408;28;20476;-69
2021/12/30 12:16:59;;;;;;;1.20;0.40;;;13.70;99.90;;;;;;4992193;28;20417;-69
2021/12/30 12:19:41;;;;;;;1.30;0.50;;;13.70;99.90;;;;;;4987268;28;21066;-69
2021/12/30 12:22:25;;;;;;;1.20;0.40;;;13.70;99.90;;;;;;4990375;28;20431;-69
2021/12/30 12:24:51;;;;;;;2.70;0.77;;;13.70;99.90;;;;;;4997574;28;20518;-70
2021/12/30 12:27:20;;;;;;;1.73;0.70;;;13.80;99.90;;;;;;4994025;28;20466;-70
2021/12/30 12:29:55;;;;;;;1.53;0.70;;;13.90;99.90;;;;;;4994849;28;20438;-70
2021/12/30 12:32:30;;;;;;;1.87;0.63;;;13.90;99.90;;;;;;4987433;28;20442;-69
2021/12/30 12:35:25;;;;;;;1.30;0.60;;;14.00;99.90;;;;;;4982040;28;20453;-70
2021/12/30 12:38:09;;;;;;;1.83;0.70;;;14.00;99.90;;;;;;4983539;28;20451;-70
2021/12/30 12:40:39;;;;;;;1.20;0.53;;;14.10;99.90;;;;;;4982598;28;20427;-69
2021/12/30 12:43:07;;;;;;;1.40;0.60;;;14.00;99.90;;;;;;4989952;28;20415;-70
2021/12/30 12:45:50;;;;;;;1.70;0.70;;;14.00;99.90;;;;;;4990607;28;20469;-69
2021/12/30 12:48:16;;;;;;;1.50;0.60;;;14.00;99.90;;;;;;4987287;28;20462;-69
2021/12/30 12:50:51;;;;;;;1.87;0.50;;;13.90;99.90;;;;;;4990635;28;20453;-70
2021/12/30 12:53:20;;;;;;;1.20;0.40;;;13.80;99.90;;;;;;4989163;28;20194;-70
2021/12/30 12:55:45;;;;;;;1.30;0.50;;;13.80;99.90;;;;;;4989216;28;20430;-70